静岡空港の過去48時間の天気

静岡空港 (Shizuoka)

現在時刻: 11/17 01:53 JST (11/16 16:53 UTC) 以下の時間は現地時間です。

過去48時間のMETAR気象情報
時間 風向 風速(m/s) 視程 気温(℃) 湿度(%) 気圧(hPa) 天気現象
16 21:00 北西 4 10km以上 13 67 1018
16 20:00 西北西 2 10km以上 13 72 1018
16 19:00 北西 3 10km以上 14 67 1018
16 18:00 北西 2 10km以上 15 59 1019
16 17:00 西 3 10km以上 16 55 1019
16 16:00 西南西 3 10km以上 17 52 1019
16 15:00 西南西 3 10km以上 18 49 1019
16 14:00 西 3 10km以上 18 45 1019
16 13:00 不定 1 10km以上 17 45 1020
16 12:00 西 2 10km以上 17 42 1020
16 11:00 不定 1 10km以上 16 48 1022
16 10:00 不定 1 10km以上 15 48 1022
16 09:00 北北西 2 10km以上 13 58 1022
16 08:00 北北西 2 10km以上 11 71 1023
16 07:30 北北西 3 10km以上 10 76 1023
15 21:00 北西 3 10km以上 11 71 1023
15 20:00 北西 3 10km以上 12 67 1023
15 19:00 北西 4 10km以上 12 67 1022
15 18:00 西 2 10km以上 13 54 1022
15 17:00 1 10km以上 15 45 1021
15 16:00 南南東 2 10km以上 15 45 1020
15 15:00 南南東 3 10km以上 16 39 1020
15 14:00 南東 2 10km以上 17 36 1020
15 13:00 東南東 4 10km以上 16 39 1020
15 12:00 東北東 2 10km以上 16 34 1020
15 11:00 東北東 3 10km以上 15 45 1021
15 10:00 北東 3 10km以上 14 51 1021
15 09:00 東北東 3 10km以上 13 54 1021
15 08:00 2 10km以上 12 67 1021
15 07:30 北北西 2 10km以上 10 82 1020
RJNS 161200Z 31007KT 9999 FEW030 SCT160 BKN/// 13/07 Q1018
RJNS 161100Z 30004KT 9999 FEW030 SCT180 BKN/// 13/08 Q1018
RJNS 161000Z 31006KT 9999 FEW030 BKN/// 14/08 Q1018
RJNS 160900Z 31004KT 9999 FEW030 BKN/// 15/07 Q1019
RJNS 160800Z 26005KT 9999 FEW030 BKN/// 16/07 Q1019
RJNS 160700Z 25005KT 210V270 9999 FEW030 BKN/// 17/07 Q1019
RJNS 160600Z 25005KT 9999 FEW030 BKN/// 18/07 Q1019
RJNS 160500Z 26005KT 210V330 9999 FEW025 BKN/// 18/06 Q1019
RJNS 160400Z VRB02KT 9999 FEW025 SCT050 BKN/// 17/05 Q1020
RJNS 160300Z 26003KT 170V310 9999 FEW025 SCT050 BKN/// 17/04 Q1020
RJNS 160200Z VRB02KT 9999 FEW025 SCT050 BKN/// 16/05 Q1022
RJNS 160100Z VRB02KT 9999 FEW025 SCT045 15/04 Q1022
RJNS 160000Z 34004KT 310V020 9999 FEW025 13/05 Q1022
RJNS 152300Z 34003KT 280V030 9999 FEW025 11/06 Q1023
RJNS 152230Z 33005KT 9999 FEW020 10/06 Q1023
RJNS 151200Z 32005KT 9999 FEW025 11/06 Q1023
RJNS 151100Z 32006KT 9999 FEW025 BKN050 12/06 Q1023
RJNS 151000Z 31007KT 9999 FEW025 BKN050 12/06 Q1022
RJNS 150900Z 26003KT 230V300 9999 FEW025 13/04 Q1022
RJNS 150800Z 19002KT 9999 FEW025 15/03 Q1021
RJNS 150700Z 15004KT 9999 FEW030 15/03 Q1020
RJNS 150600Z 15005KT 110V180 9999 FEW030 16/02 Q1020
RJNS 150500Z 13004KT 070V160 9999 FEW030 17/02 Q1020
RJNS 150400Z 11007KT 070V130 9999 FEW030 16/02 Q1020
RJNS 150300Z 07004KT 340V110 9999 FEW030 16/00 Q1020
RJNS 150200Z 06006KT 020V100 9999 FEW020 15/03 Q1021
RJNS 150100Z 04005KT 340V090 9999 FEW015 14/04 Q1021
RJNS 150000Z 06005KT 030V090 9999 FEW004 13/04 Q1021
RJNS 142300Z 01003KT 310V050 9999 FEW002 12/06 Q1021
RJNS 142230Z 33003KT 290V360 9999 FEW002 10/07 Q1020